»·PEaware :: N21056 KSBD-KEMT

N21056 :: KSBD-KEMT

FLIGHT INFORMATION

Flight Status: Arrived
Operator: Privately registered:
United States
More flights under this callsign
Pilot: Erik K. (18332)
Aircraft: CESSNA 172 SKYHAWK
(C172)
More flights by this aircraft type
Origin: KSBD San Bernardino Intl
United States
Destination: KEMT El Monte
United States
More flights between these airports :: More routes between these airports
Route: +
File this flight plan on PilotEdge
Remarks: c7
Altitude:
(Current/Filed)
7,500ft
Speed:
(Current/Filed)
0kts
Departed: 14-Mar-18 12:28 PM
Arrived: 14-Mar-18 12:53 PM
Distance/Time
Traveled:
40nm/0:25
Distance/Time
To Go:
Arrived

Flight Plot

Page will automatically refresh every two minutes.


Map Options




Map Legend


Flown Route
Filed Route
Departure Airport
Arrival Airport
Navaid (VOR, NDB)
Fix

Horizontal Profiles

Position Reports

Time Latitude Longitude Heading Altitude Ground
Speed
14-Mar-18 11:41 34.102166 -117.224730 93 1146ft 0kts
14-Mar-18 11:42 34.102166 -117.224730 93 1146ft 0kts
14-Mar-18 11:43 34.102166 -117.224730 93 1146ft 0kts
14-Mar-18 11:44 34.102166 -117.224730 93 1146ft 0kts
14-Mar-18 11:45 34.102166 -117.224730 93 1146ft 0kts
14-Mar-18 11:46 34.102166 -117.224730 93 1146ft 0kts
14-Mar-18 11:47 34.102166 -117.224730 93 1146ft 0kts
14-Mar-18 11:48 34.102166 -117.224730 93 1146ft 0kts
14-Mar-18 11:49 34.102166 -117.224730 93 1146ft 0kts
14-Mar-18 11:50 34.102166 -117.224730 93 1146ft 0kts
14-Mar-18 11:51 34.102166 -117.224730 93 1146ft 0kts
14-Mar-18 11:52 34.102166 -117.224730 93 1146ft 0kts
14-Mar-18 11:53 34.102166 -117.224730 93 1146ft 0kts
14-Mar-18 11:54 34.102166 -117.224730 93 1146ft 0kts
14-Mar-18 11:55 34.102166 -117.224730 93 1146ft 0kts
14-Mar-18 11:56 34.102166 -117.224730 93 1146ft 0kts
14-Mar-18 11:57 34.102166 -117.224730 93 1146ft 0kts
14-Mar-18 11:58 34.102166 -117.224730 93 1146ft 0kts
14-Mar-18 11:59 34.102166 -117.224730 93 1146ft 0kts
14-Mar-18 12:00 34.102166 -117.224730 93 1146ft 0kts
14-Mar-18 12:01 34.102166 -117.224730 93 1146ft 0kts
14-Mar-18 12:02 34.102166 -117.224730 93 1146ft 0kts
14-Mar-18 12:03 34.102166 -117.224730 93 1146ft 0kts
14-Mar-18 12:04 34.102166 -117.224730 93 1146ft 0kts
14-Mar-18 12:05 34.102166 -117.224730 93 1146ft 0kts
14-Mar-18 12:06 34.102166 -117.224730 93 1146ft 0kts
14-Mar-18 12:07 34.102166 -117.224730 93 1146ft 0kts
14-Mar-18 12:08 34.102166 -117.224730 93 1146ft 0kts
14-Mar-18 12:09 34.102166 -117.224730 93 1146ft 0kts
14-Mar-18 12:10 34.102166 -117.224730 93 1146ft 0kts
14-Mar-18 12:11 34.102166 -117.224730 93 1146ft 0kts
14-Mar-18 12:12 34.102166 -117.224730 93 1146ft 0kts
14-Mar-18 12:13 34.102166 -117.224730 93 1146ft 0kts
14-Mar-18 12:14 34.102166 -117.224730 93 1146ft 0kts
14-Mar-18 12:15 34.102166 -117.224730 93 1146ft 0kts
14-Mar-18 12:16 34.102166 -117.224730 93 1146ft 0kts
14-Mar-18 12:17 34.102166 -117.224730 93 1146ft 0kts
14-Mar-18 12:18 34.102166 -117.224730 93 1146ft 0kts
14-Mar-18 12:19 34.102166 -117.224730 93 1146ft 0kts
14-Mar-18 12:20 34.102166 -117.224730 93 1146ft 0kts
14-Mar-18 12:21 34.102166 -117.224730 93 1146ft 0kts
14-Mar-18 12:22 34.102113 -117.224700 162 1146ft 5kts
14-Mar-18 12:23 34.101089 -117.221557 68 1152ft 7kts
14-Mar-18 12:24 34.101379 -117.220204 93 1158ft 4kts
14-Mar-18 12:25 34.100849 -117.219772 161 1159ft 0kts
14-Mar-18 12:26 34.100127 -117.219613 196 1159ft 14kts
14-Mar-18 12:27 34.094416 -117.237943 248 1625ft 77kts
14-Mar-18 12:28 34.090109 -117.262422 281 2466ft 75kts
14-Mar-18 12:29 34.095173 -117.287411 286 3225ft 80kts
14-Mar-18 12:30 34.103681 -117.311810 280 3977ft 79kts
14-Mar-18 12:31 34.104515 -117.340177 268 4367ft 96kts
14-Mar-18 12:32 34.099414 -117.373791 254 4465ft 106kts
14-Mar-18 12:33 34.094220 -117.409913 267 4438ft 114kts
14-Mar-18 12:34 34.093875 -117.447653 274 4444ft 114kts
14-Mar-18 12:35 34.095411 -117.485315 263 4444ft 113kts
14-Mar-18 12:36 34.091102 -117.522105 267 4436ft 113kts
14-Mar-18 12:37 34.094225 -117.559451 274 4433ft 113kts
14-Mar-18 12:38 34.090227 -117.596500 255 4430ft 113kts
14-Mar-18 12:39 34.086447 -117.633162 272 4426ft 113kts
14-Mar-18 12:40 34.087750 -117.669181 268 4431ft 113kts
14-Mar-18 12:41 34.088822 -117.706919 272 4431ft 113kts
14-Mar-18 12:42 34.089572 -117.744490 272 4431ft 113kts
14-Mar-18 12:43 34.090782 -117.781684 270 4433ft 113kts
14-Mar-18 12:44 34.091786 -117.819383 272 4435ft 113kts
14-Mar-18 12:45 34.094542 -117.856722 274 4089ft 114kts
14-Mar-18 12:46 34.097490 -117.893903 267 3549ft 110kts
14-Mar-18 12:47 34.097893 -117.931391 275 2843ft 115kts
14-Mar-18 12:48 34.104203 -117.968212 284 2215ft 114kts
14-Mar-18 12:49 34.108496 -117.998372 271 1751ft 86kts
14-Mar-18 12:50 34.103953 -118.022696 224 1073ft 59kts
14-Mar-18 12:51 34.091163 -118.032007 203 350ft 55kts
14-Mar-18 12:52 34.084780 -118.034343 155 287ft 0kts
14-Mar-18 12:53 34.084780 -118.034343 155 287ft 0kts
14-Mar-18 12:54 34.084278 -118.033532 302 290ft 0kts

Navigation Log

Ident Type
Flight plan parsing failed, navigation log unavailable